Mappsville, Virginia
Current Conditions -  °F | °C
As of 11:20 AM on Monday 26 Jan 2015 (Local Time) from KWAL Reporting Station
Overcast Overcast  
Wind Chill: 42°   Ceiling: 1300
Heat Index: 47°   Visibility: 10mi
Dew Point: 42°   Wind: 12mph
Humidity: 83%   Direction: 40°NE
Pressure: 29.68"   Gusts: NA
Location:  37.85°N, 75.57°W
Report Text: KWAL 261620Z 04010KT 10SM BKN013 OVC020 08/06 A2968 RMK AO2 T00830056
Loading
Personal Weather Stations






























Interactive Weather Map New forecast layout! Learn more

10-Day Weather Forecast

Advertisements
Track Severe Weather on mobile